DLH1390 KJFK-EDDF

Flight info

Callsign DLH1390
Flight time 6h 47m
Altitude 35000
Route BETTE ACK KANNI N139A PORTI NATU XETBO DOLIP ENJEX ADHAV AGCAT AXNEF ZIPWE OZZIL SAWPE Q63 CPT UL9 BIG L607 KONAN KOK UL607 SPI T180 NIVNU T847 IMCOM IMCO1C
Aircraft A388/J-V/N

Departure

Time 2026-04-13 13:21
Airport John F. Kennedy International Airport (KJFK)

Arrival

Time 2026-04-13 20:08
Airport Frankfurt Main Airport (EDDF)
Time Latitude Longitude Altitude Speed Heading
2026-04-13 13:04 40.63782 -73.78025 19 ft 0 kts 263°
2026-04-13 13:08 40.63782 -73.78022 20 ft 1 kts 263°
2026-04-13 13:08 40.63784 -73.78002 20 ft 2 kts 263°
2026-04-13 13:08 40.63786 -73.77982 20 ft 2 kts 263°
2026-04-13 13:08 40.63788 -73.77968 19 ft 2 kts 259°
2026-04-13 13:09 40.63793 -73.77948 20 ft 2 kts 232°
2026-04-13 13:09 40.63804 -73.77934 20 ft 2 kts 211°
2026-04-13 13:09 40.63819 -73.77925 20 ft 2 kts 189°
2026-04-13 13:09 40.63831 -73.77924 20 ft 0 kts 173°
2026-04-13 13:10 40.63835 -73.77924 20 ft 0 kts 172°
2026-04-13 13:12 40.63826 -73.77923 19 ft 3 kts 172°
2026-04-13 13:13 40.63788 -73.77917 19 ft 7 kts 173°
2026-04-13 13:13 40.63725 -73.77907 19 ft 11 kts 173°
2026-04-13 13:13 40.63631 -73.77893 19 ft 16 kts 173°
2026-04-13 13:13 40.63598 -73.77880 18 ft 0 kts 152°
2026-04-13 13:14 40.63596 -73.77879 18 ft 1 kts 152°
2026-04-13 13:14 40.63572 -73.77851 18 ft 7 kts 131°
2026-04-13 13:14 40.63566 -73.77786 18 ft 8 kts 53°
2026-04-13 13:14 40.63623 -73.77739 19 ft 11 kts 32°
2026-04-13 13:15 40.63703 -73.77672 19 ft 15 kts 31°
2026-04-13 13:15 40.63811 -73.77589 20 ft 20 kts 30°
2026-04-13 13:15 40.63931 -73.77495 19 ft 22 kts 31°
2026-04-13 13:15 40.64065 -73.77389 20 ft 24 kts 31°
2026-04-13 13:16 40.64217 -73.77270 20 ft 26 kts 31°
2026-04-13 13:16 40.64379 -73.77144 19 ft 27 kts 31°
2026-04-13 13:16 40.64559 -73.77087 19 ft 27 kts 360°
2026-04-13 13:16 40.64703 -73.77149 19 ft 18 kts 310°
2026-04-13 13:17 40.64801 -73.77115 19 ft 17 kts 51°
2026-04-13 13:17 40.64875 -73.76983 19 ft 18 kts 56°
2026-04-13 13:17 40.64903 -73.76824 19 ft 19 kts 113°
2026-04-13 13:17 40.64913 -73.76672 19 ft 19 kts 34°
2026-04-13 13:18 40.65033 -73.76577 19 ft 20 kts 30°
2026-04-13 13:18 40.65097 -73.76496 19 ft 7 kts 94°
2026-04-13 13:18 40.65093 -73.76473 19 ft 0 kts 108°
2026-04-13 13:19 40.65093 -73.76472 19 ft 0 kts 108°
2026-04-13 13:19 40.65090 -73.76463 19 ft 2 kts 110°
2026-04-13 13:19 40.65081 -73.76434 19 ft 4 kts 115°
2026-04-13 13:19 40.65057 -73.76384 19 ft 7 kts 133°
2026-04-13 13:20 40.65001 -73.76376 19 ft 10 kts 198°
2026-04-13 13:20 40.64920 -73.76437 19 ft 24 kts 211°
2026-04-13 13:20 40.64582 -73.76701 20 ft 87 kts 211°
2026-04-13 13:20 40.63887 -73.77242 20 ft 142 kts 210°
2026-04-13 13:21 40.62884 -73.78021 17 ft 185 kts 211°
2026-04-13 13:21 40.61681 -73.78955 294 ft 201 kts 210°
2026-04-13 13:21 40.60578 -73.79787 1537 ft 171 kts 212°
2026-04-13 13:21 40.59436 -73.80612 1873 ft 206 kts 212°
2026-04-13 13:22 40.58015 -73.81664 2229 ft 246 kts 213°
2026-04-13 13:22 40.56385 -73.82890 2853 ft 276 kts 214°
2026-04-13 13:22 40.54616 -73.84230 3642 ft 301 kts 213°
2026-04-13 13:22 40.52476 -73.85069 4512 ft 334 kts 191°
2026-04-13 13:23 40.50031 -73.84763 5437 ft 355 kts 171°
2026-04-13 13:23 40.47788 -73.83334 6051 ft 359 kts 147°
2026-04-13 13:23 40.46090 -73.80846 6842 ft 370 kts 125°
2026-04-13 13:23 40.45032 -73.77598 6943 ft 387 kts 106°
2026-04-13 13:24 40.44846 -73.74019 6850 ft 397 kts 83°
2026-04-13 13:24 40.45690 -73.70502 7712 ft 393 kts 60°
2026-04-13 13:24 40.47233 -73.67589 8611 ft 388 kts 50°
2026-04-13 13:24 40.48925 -73.64658 9171 ft 397 kts 51°
2026-04-13 13:25 40.50405 -73.61543 9805 ft 402 kts 66°
2026-04-13 13:25 40.51055 -73.57924 10555 ft 402 kts 87°
2026-04-13 13:25 40.51466 -73.50465 11699 ft 412 kts 84°
2026-04-13 13:26 40.51812 -73.46679 12012 ft 417 kts 84°
2026-04-13 13:26 40.52169 -73.42786 12541 ft 422 kts 83°
2026-04-13 13:26 40.52525 -73.38929 13087 ft 426 kts 83°
2026-04-13 13:26 40.52890 -73.34929 12824 ft 429 kts 84°
2026-04-13 13:27 40.53254 -73.30941 13114 ft 435 kts 84°
2026-04-13 13:27 40.53611 -73.27014 14026 ft 425 kts 84°
2026-04-13 13:27 40.53970 -73.23042 13931 ft 435 kts 84°
2026-04-13 13:27 40.54336 -73.18995 14188 ft 441 kts 83°
2026-04-13 13:28 40.54695 -73.14996 15079 ft 434 kts 83°
2026-04-13 13:28 40.55061 -73.10915 14957 ft 448 kts 83°
2026-04-13 13:28 40.55426 -73.06805 15442 ft 449 kts 83°
2026-04-13 13:28 40.55785 -73.02762 16138 ft 446 kts 83°
2026-04-13 13:29 40.56530 -72.98579 15896 ft 454 kts 69°
2026-04-13 13:29 40.57607 -72.94582 16008 ft 454 kts 70°
2026-04-13 13:29 40.58638 -72.90610 16518 ft 455 kts 70°
2026-04-13 13:29 40.59659 -72.86646 16994 ft 457 kts 70°
2026-04-13 13:30 40.60679 -72.82665 17378 ft 460 kts 70°
2026-04-13 13:30 40.61718 -72.78601 17766 ft 464 kts 70°
2026-04-13 13:30 40.62775 -72.74455 18183 ft 466 kts 69°
2026-04-13 13:30 40.64963 -72.65849 18945 ft 469 kts 69°
2026-04-13 13:31 40.66022 -72.61682 19153 ft 475 kts 69°
2026-04-13 13:31 40.67779 -72.54745 19815 ft 477 kts 69°
2026-04-13 13:31 40.68843 -72.50530 20010 ft 476 kts 70°
2026-04-13 13:31 40.69932 -72.46217 20123 ft 482 kts 69°
2026-04-13 13:32 40.70999 -72.41966 20522 ft 481 kts 69°
2026-04-13 13:32 40.72066 -72.37724 20958 ft 479 kts 69°
2026-04-13 13:32 40.73127 -72.33504 21112 ft 484 kts 69°
2026-04-13 13:32 40.74223 -72.29125 21262 ft 489 kts 69°
2026-04-13 13:33 40.75290 -72.24854 21664 ft 489 kts 69°
2026-04-13 13:33 40.76377 -72.20493 22544 ft 488 kts 69°
2026-04-13 13:33 40.77458 -72.16150 23315 ft 489 kts 69°
2026-04-13 13:33 40.78526 -72.11858 23881 ft 495 kts 69°
2026-04-13 13:34 40.79623 -72.07439 24482 ft 499 kts 69°
2026-04-13 13:34 40.80721 -72.03006 25150 ft 501 kts 69°
2026-04-13 13:34 40.81834 -71.98498 25706 ft 506 kts 69°
2026-04-13 13:34 40.82975 -71.93875 26268 ft 510 kts 69°
2026-04-13 13:35 40.84117 -71.89233 26817 ft 513 kts 69°
2026-04-13 13:35 40.85263 -71.84569 27421 ft 515 kts 69°
2026-04-13 13:35 40.86415 -71.79871 27858 ft 519 kts 69°
2026-04-13 13:35 40.87571 -71.75149 28196 ft 524 kts 69°
2026-04-13 13:36 40.88726 -71.70417 28682 ft 525 kts 69°
2026-04-13 13:36 40.89884 -71.65670 29034 ft 528 kts 69°
2026-04-13 13:36 40.91056 -71.60854 29341 ft 531 kts 69°
2026-04-13 13:36 40.92190 -71.56169 29720 ft 532 kts 69°
2026-04-13 13:37 40.93322 -71.51503 30006 ft 533 kts 69°
2026-04-13 13:37 40.94472 -71.46740 30233 ft 536 kts 69°
2026-04-13 13:37 40.95621 -71.41981 30449 ft 538 kts 69°
2026-04-13 13:37 40.96756 -71.37268 30711 ft 538 kts 69°
2026-04-13 13:38 40.97912 -71.32454 30943 ft 538 kts 69°
2026-04-13 13:38 40.99067 -71.27640 31076 ft 540 kts 69°
2026-04-13 13:38 41.00219 -71.22825 31204 ft 542 kts 69°
2026-04-13 13:38 41.01376 -71.17976 31719 ft 534 kts 69°
2026-04-13 13:39 41.02511 -71.13213 32127 ft 531 kts 69°
2026-04-13 13:39 41.04802 -71.03571 32437 ft 532 kts 69°
2026-04-13 13:39 41.05938 -70.98766 33106 ft 523 kts 69°
2026-04-13 13:40 41.07055 -70.94043 33225 ft 526 kts 68°
2026-04-13 13:40 41.09288 -70.84570 33449 ft 529 kts 69°
2026-04-13 13:40 41.10396 -70.79841 33704 ft 527 kts 68°
2026-04-13 13:41 41.11514 -70.75079 33930 ft 526 kts 69°
2026-04-13 13:41 41.12608 -70.70387 34153 ft 525 kts 68°
2026-04-13 13:41 41.13713 -70.65669 34282 ft 527 kts 69°
2026-04-13 13:41 41.14795 -70.61004 34441 ft 527 kts 68°
2026-04-13 13:42 41.15897 -70.56275 34528 ft 527 kts 68°
2026-04-13 13:42 41.17006 -70.51490 34658 ft 528 kts 68°
2026-04-13 13:42 41.18095 -70.46782 34765 ft 528 kts 68°
2026-04-13 13:43 41.20293 -70.37258 34876 ft 530 kts 68°
2026-04-13 13:43 41.22478 -70.27740 34991 ft 531 kts 69°
2026-04-13 13:44 41.24669 -70.18153 35314 ft 528 kts 69°
2026-04-13 13:44 41.25774 -70.13327 35149 ft 532 kts 69°
2026-04-13 13:44 41.26890 -70.08410 35252 ft 531 kts 69°
2026-04-13 13:45 41.29587 -69.99178 35186 ft 523 kts 55°
2026-04-13 13:45 41.31565 -69.95112 35294 ft 517 kts 49°
2026-04-13 13:45 41.33569 -69.91110 35060 ft 515 kts 52°
2026-04-13 13:45 41.35490 -69.87052 35392 ft 503 kts 52°
2026-04-13 13:46 41.37386 -69.83023 35189 ft 512 kts 52°
2026-04-13 13:46 41.39302 -69.78919 35330 ft 509 kts 52°
2026-04-13 13:46 41.41242 -69.74751 35175 ft 515 kts 52°
2026-04-13 13:47 41.45105 -69.66425 35287 ft 517 kts 52°
2026-04-13 13:47 41.47027 -69.62286 35123 ft 520 kts 52°
2026-04-13 13:47 41.48935 -69.58156 35286 ft 519 kts 52°
2026-04-13 13:47 41.50878 -69.53957 35184 ft 522 kts 52°
2026-04-13 13:48 41.52812 -69.49766 35195 ft 522 kts 52°
2026-04-13 13:48 41.56629 -69.41479 35178 ft 523 kts 52°
2026-04-13 13:49 41.60475 -69.33105 35197 ft 524 kts 53°
2026-04-13 13:49 41.64278 -69.24804 35194 ft 523 kts 53°
2026-04-13 13:50 41.68124 -69.16385 35201 ft 523 kts 52°
2026-04-13 13:50 41.71936 -69.08018 35189 ft 523 kts 52°
2026-04-13 13:51 41.75747 -68.99626 35188 ft 523 kts 53°
2026-04-13 13:51 41.79556 -68.91219 35151 ft 524 kts 53°
2026-04-13 13:52 41.83366 -68.82786 35210 ft 522 kts 52°
2026-04-13 13:52 41.87147 -68.74391 35217 ft 522 kts 53°
2026-04-13 13:53 41.91002 -68.65810 35178 ft 523 kts 53°
2026-04-13 13:53 41.94754 -68.57433 35149 ft 523 kts 53°
2026-04-13 13:54 41.98505 -68.49033 35198 ft 521 kts 52°
2026-04-13 13:54 42.00386 -68.44813 34637 ft 521 kts 53°
2026-04-13 13:54 42.02253 -68.40621 34366 ft 517 kts 53°
2026-04-13 13:54 42.04092 -68.36468 34876 ft 501 kts 52°
2026-04-13 13:55 42.05882 -68.32447 35223 ft 498 kts 53°
2026-04-13 13:55 42.09494 -68.24297 35199 ft 506 kts 53°
2026-04-13 13:56 42.13159 -68.16002 35194 ft 512 kts 53°
2026-04-13 13:56 42.16803 -68.07729 35210 ft 515 kts 53°
2026-04-13 13:57 42.20515 -67.99278 35212 ft 518 kts 53°
2026-04-13 13:57 42.24212 -67.90835 35203 ft 519 kts 53°
2026-04-13 13:58 42.27906 -67.82380 35217 ft 520 kts 52°
2026-04-13 13:58 42.31605 -67.73887 35218 ft 521 kts 53°
2026-04-13 13:59 42.35308 -67.65359 35215 ft 521 kts 53°
2026-04-13 13:59 42.38977 -67.56887 35220 ft 522 kts 53°
2026-04-13 14:00 42.42685 -67.48296 35199 ft 522 kts 53°
2026-04-13 14:00 42.46405 -67.39657 35138 ft 516 kts 52°
2026-04-13 14:00 42.48203 -67.35469 35310 ft 508 kts 52°
2026-04-13 14:01 42.50031 -67.31210 35191 ft 508 kts 53°
2026-04-13 14:01 42.53559 -67.22967 35246 ft 503 kts 53°
2026-04-13 14:02 42.57144 -67.14573 35227 ft 504 kts 53°
2026-04-13 14:02 42.60674 -67.06282 35219 ft 505 kts 53°
2026-04-13 14:03 42.64138 -66.97707 35195 ft 509 kts 58°
2026-04-13 14:03 42.67194 -66.88772 35203 ft 511 kts 58°
2026-04-13 14:04 42.70275 -66.79767 35220 ft 512 kts 58°
2026-04-13 14:04 42.73282 -66.70945 35231 ft 508 kts 58°
2026-04-13 14:05 42.76286 -66.62116 35208 ft 508 kts 58°
2026-04-13 14:05 42.79255 -66.53347 35225 ft 509 kts 58°
2026-04-13 14:06 42.82232 -66.44531 35236 ft 506 kts 57°
2026-04-13 14:06 42.85198 -66.35722 35232 ft 508 kts 58°
2026-04-13 14:07 42.88168 -66.26870 35236 ft 508 kts 58°
2026-04-13 14:07 42.91122 -66.18039 35213 ft 507 kts 58°
2026-04-13 14:08 42.94053 -66.09248 35228 ft 507 kts 58°
2026-04-13 14:08 42.96984 -66.00417 35221 ft 505 kts 58°
2026-04-13 14:09 42.99926 -65.91543 35247 ft 503 kts 58°
2026-04-13 14:09 43.02838 -65.82719 35228 ft 504 kts 58°
2026-04-13 14:10 43.05745 -65.73886 35248 ft 506 kts 58°
2026-04-13 14:10 43.08662 -65.64984 35238 ft 506 kts 58°
2026-04-13 14:11 43.11578 -65.56068 35246 ft 503 kts 58°
2026-04-13 14:11 43.14489 -65.47131 35242 ft 502 kts 58°
2026-04-13 14:12 43.17441 -65.38042 35251 ft 504 kts 58°
2026-04-13 14:12 43.20327 -65.29120 35239 ft 501 kts 58°
2026-04-13 14:13 43.23230 -65.20114 35258 ft 502 kts 58°
2026-04-13 14:13 43.26096 -65.11195 35281 ft 500 kts 58°
2026-04-13 14:14 43.30357 -64.97886 35258 ft 501 kts 58°
2026-04-13 14:14 43.33198 -64.88968 35280 ft 499 kts 58°
2026-04-13 14:15 43.36004 -64.80141 35241 ft 500 kts 58°
2026-04-13 14:15 43.38816 -64.71255 35272 ft 502 kts 58°
2026-04-13 14:16 43.41587 -64.62472 35278 ft 500 kts 58°
2026-04-13 14:16 43.44365 -64.53639 35266 ft 499 kts 58°
2026-04-13 14:17 43.47149 -64.44757 35277 ft 498 kts 58°
2026-04-13 14:17 43.49953 -64.35778 35276 ft 497 kts 58°
2026-04-13 14:18 43.52723 -64.26878 35263 ft 498 kts 58°
2026-04-13 14:18 43.55480 -64.17989 35269 ft 498 kts 59°
2026-04-13 14:19 43.58219 -64.09129 35271 ft 497 kts 58°
2026-04-13 14:19 43.60958 -64.00245 35278 ft 498 kts 58°
2026-04-13 14:20 43.63690 -63.91341 35275 ft 497 kts 58°
2026-04-13 14:20 43.66402 -63.82484 35284 ft 498 kts 58°
2026-04-13 14:21 43.69123 -63.73553 35295 ft 496 kts 58°
2026-04-13 14:21 43.71815 -63.64700 35288 ft 497 kts 58°
2026-04-13 14:22 43.74511 -63.55799 35282 ft 499 kts 58°
2026-04-13 14:22 43.77189 -63.46924 35301 ft 498 kts 58°
2026-04-13 14:23 43.79904 -63.37896 35292 ft 498 kts 58°
2026-04-13 14:23 43.82614 -63.28854 35275 ft 498 kts 59°
2026-04-13 14:24 43.85310 -63.19825 35289 ft 500 kts 59°
2026-04-13 14:24 43.87969 -63.10890 35287 ft 499 kts 59°
2026-04-13 14:25 43.90631 -63.01911 35292 ft 498 kts 58°
2026-04-13 14:25 43.93281 -62.92945 35295 ft 501 kts 59°
2026-04-13 14:26 43.95943 -62.83907 35294 ft 500 kts 59°
2026-04-13 14:26 43.98575 -62.74927 35286 ft 499 kts 59°
2026-04-13 14:27 44.01222 -62.65875 35294 ft 501 kts 59°
2026-04-13 14:27 44.03850 -62.56852 35295 ft 499 kts 59°
2026-04-13 14:28 44.06454 -62.47883 35278 ft 501 kts 59°
2026-04-13 14:28 44.09063 -62.38862 35295 ft 499 kts 59°
2026-04-13 14:29 44.11702 -62.29706 35325 ft 501 kts 59°
2026-04-13 14:29 44.14328 -62.20552 35298 ft 499 kts 59°
2026-04-13 14:30 44.16900 -62.11572 35283 ft 499 kts 59°
2026-04-13 14:30 44.19484 -62.02502 35297 ft 500 kts 59°
2026-04-13 14:31 44.22046 -61.93473 35303 ft 497 kts 59°
2026-04-13 14:31 44.24600 -61.84448 35292 ft 500 kts 59°
2026-04-13 14:32 44.27159 -61.75376 35290 ft 499 kts 59°
2026-04-13 14:32 44.29693 -61.66355 35307 ft 501 kts 59°
2026-04-13 14:33 44.32223 -61.57311 35304 ft 500 kts 59°
2026-04-13 14:33 44.34755 -61.48235 35304 ft 502 kts 59°
2026-04-13 14:34 44.37300 -61.39069 35306 ft 502 kts 59°
2026-04-13 14:34 44.39796 -61.30049 35295 ft 502 kts 59°
2026-04-13 14:35 44.42327 -61.20873 35303 ft 502 kts 60°
2026-04-13 14:35 44.44829 -61.11754 35307 ft 500 kts 59°
2026-04-13 14:36 44.47334 -61.02607 35286 ft 500 kts 59°
2026-04-13 14:36 44.49817 -60.93500 35291 ft 502 kts 59°
2026-04-13 14:37 44.52315 -60.84296 35300 ft 500 kts 59°
2026-04-13 14:37 44.54796 -60.75132 35303 ft 501 kts 59°
2026-04-13 14:38 44.57267 -60.65965 35295 ft 502 kts 59°
2026-04-13 14:38 44.59734 -60.56782 35301 ft 504 kts 59°
2026-04-13 14:39 44.62178 -60.47634 35315 ft 501 kts 59°
2026-04-13 14:39 44.64639 -60.38409 35305 ft 502 kts 59°
2026-04-13 14:40 44.67099 -60.29140 35286 ft 508 kts 60°
2026-04-13 14:40 44.69566 -60.19809 35296 ft 512 kts 60°
2026-04-13 14:41 44.72036 -60.10426 35310 ft 515 kts 60°
2026-04-13 14:41 44.74521 -60.00956 35297 ft 516 kts 60°
2026-04-13 14:42 44.76985 -59.91511 35305 ft 510 kts 60°
2026-04-13 14:42 44.79430 -59.82119 35309 ft 512 kts 59°
2026-04-13 14:43 44.81856 -59.72760 35316 ft 511 kts 60°
2026-04-13 14:43 44.84288 -59.63341 35320 ft 514 kts 59°
2026-04-13 14:44 44.86702 -59.53939 35314 ft 508 kts 59°
2026-04-13 14:44 44.89105 -59.44562 35312 ft 509 kts 59°
2026-04-13 14:45 44.91503 -59.35162 35317 ft 511 kts 59°
2026-04-13 14:45 44.93892 -59.25758 35312 ft 512 kts 60°
2026-04-13 14:46 44.96269 -59.16357 35299 ft 509 kts 59°
2026-04-13 14:46 44.98643 -59.06935 35298 ft 507 kts 59°
2026-04-13 14:47 45.00992 -58.97571 35311 ft 506 kts 59°
2026-04-13 14:47 45.03333 -58.88206 35324 ft 506 kts 59°
2026-04-13 14:48 45.05737 -58.78545 35310 ft 508 kts 59°
2026-04-13 14:48 45.08142 -58.68837 35311 ft 505 kts 59°
2026-04-13 14:49 45.10522 -58.59195 35320 ft 509 kts 59°
2026-04-13 14:49 45.12918 -58.49435 35327 ft 508 kts 59°
2026-04-13 14:50 45.15309 -58.39668 35342 ft 507 kts 59°
2026-04-13 14:50 45.17705 -58.29830 35321 ft 508 kts 60°
2026-04-13 14:51 45.20090 -58.20000 35340 ft 510 kts 60°
2026-04-13 14:51 45.22474 -58.10119 35347 ft 510 kts 60°
2026-04-13 14:52 45.24864 -58.00172 35345 ft 510 kts 60°
2026-04-13 14:52 45.27236 -57.90263 35332 ft 510 kts 60°
2026-04-13 14:53 45.29606 -57.80312 35326 ft 509 kts 60°
2026-04-13 14:53 45.30779 -57.75374 35435 ft 505 kts 60°
2026-04-13 14:53 45.31944 -57.70467 35338 ft 511 kts 60°
2026-04-13 14:54 45.33111 -57.65517 35215 ft 507 kts 60°
2026-04-13 14:54 45.34280 -57.60557 35383 ft 505 kts 60°
2026-04-13 14:54 45.36616 -57.50628 35325 ft 510 kts 61°
2026-04-13 14:55 45.38912 -57.40812 35335 ft 508 kts 60°
2026-04-13 14:55 45.41180 -57.31086 35324 ft 508 kts 62°
2026-04-13 14:56 45.43468 -57.21216 35330 ft 510 kts 62°
2026-04-13 14:56 45.45734 -57.11397 35319 ft 511 kts 62°
2026-04-13 14:57 45.47989 -57.01593 35309 ft 512 kts 62°
2026-04-13 14:58 45.51358 -56.86848 35311 ft 510 kts 62°
2026-04-13 14:58 45.53628 -56.76859 35313 ft 513 kts 62°
2026-04-13 14:59 45.55865 -56.66962 35320 ft 508 kts 62°
2026-04-13 14:59 45.58070 -56.57172 35314 ft 506 kts 62°
2026-04-13 15:00 45.60259 -56.47407 35307 ft 506 kts 62°
2026-04-13 15:00 45.62432 -56.37660 35320 ft 504 kts 61°
2026-04-13 15:01 45.64603 -56.27886 35293 ft 503 kts 62°
2026-04-13 15:01 45.66750 -56.18178 35284 ft 506 kts 62°
2026-04-13 15:02 45.68894 -56.08427 35287 ft 509 kts 62°
2026-04-13 15:02 45.71039 -55.98630 35293 ft 505 kts 62°
2026-04-13 15:03 45.73162 -55.88898 35287 ft 507 kts 61°
2026-04-13 15:03 45.75285 -55.79114 35281 ft 506 kts 61°
2026-04-13 15:04 45.77429 -55.69183 35287 ft 506 kts 61°
2026-04-13 15:04 45.79553 -55.59298 35282 ft 507 kts 61°
2026-04-13 15:05 45.81645 -55.49521 35280 ft 506 kts 60°
2026-04-13 15:05 45.83718 -55.39785 35286 ft 509 kts 60°
2026-04-13 15:06 45.85790 -55.29992 35266 ft 505 kts 61°
2026-04-13 15:06 45.87848 -55.20249 35276 ft 504 kts 61°
2026-04-13 15:07 45.89880 -55.10560 35269 ft 505 kts 60°
2026-04-13 15:07 45.91913 -55.00820 35248 ft 504 kts 60°
2026-04-13 15:08 45.93924 -54.91151 35242 ft 504 kts 60°
2026-04-13 15:08 45.95937 -54.81414 35250 ft 503 kts 60°
2026-04-13 15:09 45.97915 -54.71805 35243 ft 501 kts 60°
2026-04-13 15:09 45.99905 -54.62106 35245 ft 497 kts 60°
2026-04-13 15:10 46.01872 -54.52453 35237 ft 497 kts 60°
2026-04-13 15:10 46.03819 -54.42856 35227 ft 497 kts 59°
2026-04-13 15:11 46.05750 -54.33288 35221 ft 494 kts 60°
2026-04-13 15:11 46.07670 -54.23741 35226 ft 495 kts 60°
2026-04-13 15:12 46.09578 -54.14193 35219 ft 490 kts 60°
2026-04-13 15:12 46.11474 -54.04685 35250 ft 493 kts 60°
2026-04-13 15:13 46.13388 -53.95016 35240 ft 497 kts 60°
2026-04-13 15:13 46.15298 -53.85312 35230 ft 493 kts 60°
2026-04-13 15:14 46.17178 -53.75737 35235 ft 496 kts 60°
2026-04-13 15:14 46.19057 -53.66104 35222 ft 496 kts 59°
2026-04-13 15:15 46.20946 -53.56376 35224 ft 496 kts 59°
2026-04-13 15:15 46.22843 -53.46558 35227 ft 497 kts 60°
2026-04-13 15:16 46.24683 -53.36976 35213 ft 495 kts 59°
2026-04-13 15:16 46.26548 -53.27232 35197 ft 500 kts 60°
2026-04-13 15:17 46.28383 -53.17573 35179 ft 497 kts 60°
2026-04-13 15:17 46.30207 -53.07925 35189 ft 491 kts 60°
2026-04-13 15:18 46.32019 -52.98313 35177 ft 492 kts 60°
2026-04-13 15:18 46.33818 -52.88719 35188 ft 496 kts 60°
2026-04-13 15:19 46.35619 -52.79054 35165 ft 498 kts 60°
2026-04-13 15:19 46.37430 -52.69295 35175 ft 501 kts 61°
2026-04-13 15:20 46.39216 -52.59599 35152 ft 501 kts 60°
2026-04-13 15:20 46.41029 -52.49724 35157 ft 501 kts 61°
2026-04-13 15:21 46.42822 -52.39904 35149 ft 501 kts 61°
2026-04-13 15:21 46.44610 -52.30041 35108 ft 503 kts 62°
2026-04-13 15:22 46.46372 -52.20283 35139 ft 505 kts 62°
2026-04-13 15:22 46.48151 -52.10380 35140 ft 506 kts 62°
2026-04-13 15:23 46.49923 -52.00457 35082 ft 509 kts 62°
2026-04-13 15:23 46.50964 -51.95695 35146 ft 492 kts 54°
2026-04-13 15:23 46.52280 -51.91083 35109 ft 495 kts 54°
2026-04-13 15:24 46.54759 -51.81705 35107 ft 497 kts 56°
2026-04-13 15:24 46.57214 -51.72232 35097 ft 497 kts 56°
2026-04-13 15:25 46.59623 -51.62862 35086 ft 496 kts 57°
2026-04-13 15:25 46.62023 -51.53506 35094 ft 495 kts 57°
2026-04-13 15:26 46.64428 -51.44091 35088 ft 499 kts 57°
2026-04-13 15:26 46.66819 -51.34693 35087 ft 497 kts 57°
2026-04-13 15:27 46.69213 -51.25241 35058 ft 499 kts 58°
2026-04-13 15:27 46.71585 -51.15834 35085 ft 498 kts 58°
2026-04-13 15:28 46.73961 -51.06370 35057 ft 498 kts 58°
2026-04-13 15:28 46.76363 -50.96785 35055 ft 501 kts 58°
2026-04-13 15:29 46.78722 -50.87298 35061 ft 503 kts 58°
2026-04-13 15:29 46.81123 -50.77621 35056 ft 501 kts 59°
2026-04-13 15:30 46.83473 -50.68104 35065 ft 497 kts 59°
2026-04-13 15:30 46.85844 -50.58464 35059 ft 497 kts 59°
2026-04-13 15:31 46.88222 -50.48750 35017 ft 494 kts 59°
2026-04-13 15:31 46.90590 -50.39035 35023 ft 496 kts 59°
2026-04-13 15:32 46.92935 -50.29374 35020 ft 496 kts 60°
2026-04-13 15:32 46.95266 -50.19737 34997 ft 494 kts 60°
2026-04-13 15:33 46.97564 -50.10189 34989 ft 496 kts 60°
2026-04-13 15:33 46.99858 -50.00618 34984 ft 495 kts 60°
2026-04-13 15:34 47.03409 -49.86483 34967 ft 497 kts 60°
2026-04-13 15:34 47.05776 -49.77031 34957 ft 495 kts 60°
2026-04-13 15:35 47.08142 -49.67561 34933 ft 497 kts 60°
2026-04-13 15:35 47.10492 -49.58094 34939 ft 495 kts 60°
2026-04-13 15:36 47.12839 -49.48615 34961 ft 497 kts 60°
2026-04-13 15:36 47.15179 -49.39102 34948 ft 497 kts 60°
2026-04-13 15:37 47.17526 -49.29545 34926 ft 499 kts 62°
2026-04-13 15:37 47.19852 -49.20013 34931 ft 497 kts 62°
2026-04-13 15:38 47.22167 -49.10496 34905 ft 499 kts 62°
2026-04-13 15:38 47.24491 -49.00908 34904 ft 498 kts 62°
2026-04-13 15:39 47.26804 -48.91308 34893 ft 498 kts 62°
2026-04-13 15:39 47.29102 -48.81737 34917 ft 499 kts 63°
2026-04-13 15:40 47.31402 -48.72121 34880 ft 498 kts 63°
2026-04-13 15:40 47.33679 -48.62553 34895 ft 500 kts 63°
2026-04-13 15:41 47.35969 -48.52891 34866 ft 499 kts 63°
2026-04-13 15:41 47.38232 -48.43298 34878 ft 499 kts 63°
2026-04-13 15:42 47.40533 -48.33501 34861 ft 499 kts 64°
2026-04-13 15:42 47.42823 -48.23712 34841 ft 501 kts 64°
2026-04-13 15:43 47.45092 -48.13958 34832 ft 499 kts 64°
2026-04-13 15:43 47.47338 -48.04267 34832 ft 500 kts 64°
2026-04-13 15:44 47.49581 -47.94546 34809 ft 502 kts 65°
2026-04-13 15:44 47.51803 -47.84865 34783 ft 502 kts 65°
2026-04-13 15:45 47.54031 -47.75122 34782 ft 501 kts 65°
2026-04-13 15:45 47.56256 -47.65342 34807 ft 501 kts 65°
2026-04-13 15:46 47.58477 -47.55539 34774 ft 501 kts 65°
2026-04-13 15:46 47.60673 -47.45800 34740 ft 503 kts 65°
2026-04-13 15:47 47.62865 -47.36039 34758 ft 502 kts 65°
2026-04-13 15:47 47.65071 -47.26158 34745 ft 503 kts 66°
2026-04-13 15:48 47.67255 -47.16335 34708 ft 503 kts 66°
2026-04-13 15:48 47.69443 -47.06452 34711 ft 505 kts 66°
2026-04-13 15:49 47.71613 -46.96599 34716 ft 503 kts 66°
2026-04-13 15:49 47.73780 -46.86712 34682 ft 503 kts 67°
2026-04-13 15:50 47.75926 -46.76878 34696 ft 502 kts 66°
2026-04-13 15:50 47.78070 -46.67012 34671 ft 503 kts 67°
2026-04-13 15:51 47.80216 -46.57084 34652 ft 504 kts 67°
2026-04-13 15:51 47.82360 -46.47116 34630 ft 505 kts 67°
2026-04-13 15:52 47.84486 -46.37185 34631 ft 505 kts 67°
2026-04-13 15:52 47.86602 -46.27244 34604 ft 505 kts 68°
2026-04-13 15:53 47.88714 -46.17278 34583 ft 503 kts 68°
2026-04-13 15:53 47.90797 -46.07409 34584 ft 504 kts 68°
2026-04-13 15:54 47.92893 -45.97423 34592 ft 504 kts 69°
2026-04-13 15:54 47.94976 -45.87442 34546 ft 504 kts 68°
2026-04-13 15:55 47.97049 -45.77477 34552 ft 505 kts 68°
2026-04-13 15:55 47.99106 -45.67532 34526 ft 506 kts 69°
2026-04-13 15:56 48.01179 -45.57453 34521 ft 506 kts 69°
2026-04-13 15:56 48.03249 -45.47346 34510 ft 507 kts 69°
2026-04-13 15:57 48.05296 -45.37294 34509 ft 507 kts 69°
2026-04-13 15:57 48.07333 -45.27246 34478 ft 507 kts 70°
2026-04-13 15:58 48.09372 -45.17130 34488 ft 506 kts 70°
2026-04-13 15:58 48.11384 -45.07102 34463 ft 505 kts 70°
2026-04-13 15:59 48.13389 -44.97052 34438 ft 505 kts 70°
2026-04-13 15:59 48.15393 -44.86957 34435 ft 506 kts 70°
2026-04-13 16:00 48.17382 -44.76889 34424 ft 508 kts 70°
2026-04-13 16:00 48.19388 -44.66676 34406 ft 507 kts 70°
2026-04-13 16:01 48.21370 -44.56534 34412 ft 508 kts 70°
2026-04-13 16:01 48.23341 -44.46399 34385 ft 508 kts 70°
2026-04-13 16:02 48.25308 -44.36230 34375 ft 509 kts 70°
2026-04-13 16:02 48.27263 -44.26062 34369 ft 508 kts 71°
2026-04-13 16:03 48.29207 -44.15906 34335 ft 508 kts 71°
2026-04-13 16:03 48.31146 -44.05712 34339 ft 508 kts 71°
2026-04-13 16:04 48.33078 -43.95510 34341 ft 509 kts 71°
2026-04-13 16:04 48.35000 -43.85293 34308 ft 509 kts 71°
2026-04-13 16:05 48.36908 -43.75101 34290 ft 509 kts 71°
2026-04-13 16:05 48.38807 -43.64905 34293 ft 510 kts 72°
2026-04-13 16:06 48.40712 -43.54617 34272 ft 510 kts 72°
2026-04-13 16:06 48.42621 -43.44255 34266 ft 511 kts 72°
2026-04-13 16:07 48.44508 -43.33944 34242 ft 509 kts 73°
2026-04-13 16:07 48.46375 -43.23696 34245 ft 510 kts 73°
2026-04-13 16:08 48.48229 -43.13451 34227 ft 510 kts 73°
2026-04-13 16:08 48.50093 -43.03094 34213 ft 512 kts 73°
2026-04-13 16:09 48.51942 -42.92769 34218 ft 512 kts 73°
2026-04-13 16:09 48.53785 -42.82414 34209 ft 512 kts 73°
2026-04-13 16:10 48.55619 -42.72049 34184 ft 512 kts 73°
2026-04-13 16:10 48.57441 -42.61692 34192 ft 513 kts 73°
2026-04-13 16:11 48.59256 -42.51319 34177 ft 513 kts 73°
2026-04-13 16:11 48.61069 -42.40881 34167 ft 513 kts 73°
2026-04-13 16:12 48.62869 -42.30472 34153 ft 513 kts 75°
2026-04-13 16:12 48.64647 -42.20124 34144 ft 513 kts 75°
2026-04-13 16:13 48.66436 -42.09656 34149 ft 513 kts 75°
2026-04-13 16:13 48.68215 -41.99173 34131 ft 513 kts 75°
2026-04-13 16:14 48.69981 -41.88710 34144 ft 514 kts 75°
2026-04-13 16:14 48.71734 -41.78255 34131 ft 515 kts 75°
2026-04-13 16:15 48.73471 -41.67839 34133 ft 514 kts 75°
2026-04-13 16:15 48.75214 -41.57315 34136 ft 514 kts 75°
2026-04-13 16:16 48.76941 -41.46829 34130 ft 515 kts 75°
2026-04-13 16:16 48.78666 -41.36292 34116 ft 516 kts 76°
2026-04-13 16:17 48.80369 -41.25817 34129 ft 516 kts 76°
2026-04-13 16:17 48.82072 -41.15279 34104 ft 516 kts 76°
2026-04-13 16:18 48.83781 -41.04639 34111 ft 517 kts 77°
2026-04-13 16:18 48.85453 -40.94155 34112 ft 516 kts 77°
2026-04-13 16:19 48.87132 -40.83572 34103 ft 516 kts 77°
2026-04-13 16:19 48.88789 -40.73048 34097 ft 515 kts 77°
2026-04-13 16:20 48.90446 -40.62463 34109 ft 515 kts 77°
2026-04-13 16:20 48.92092 -40.51880 34090 ft 516 kts 77°
2026-04-13 16:21 48.93731 -40.41268 34087 ft 518 kts 77°
2026-04-13 16:21 48.95354 -40.30689 34081 ft 517 kts 78°
2026-04-13 16:22 48.96979 -40.20027 34089 ft 516 kts 78°
2026-04-13 16:23 48.99386 -40.04110 34075 ft 518 kts 78°
2026-04-13 16:23 49.01374 -39.93657 34063 ft 518 kts 66°
2026-04-13 16:24 49.04142 -39.83512 34066 ft 520 kts 69°
2026-04-13 16:24 49.06738 -39.73206 34092 ft 520 kts 70°
2026-04-13 16:25 49.09298 -39.62940 34086 ft 518 kts 70°
2026-04-13 16:25 49.11832 -39.52728 34081 ft 517 kts 70°
2026-04-13 16:26 49.14372 -39.42443 34073 ft 518 kts 70°
2026-04-13 16:26 49.16885 -39.32223 34067 ft 518 kts 71°
2026-04-13 16:27 49.19411 -39.21897 34084 ft 519 kts 71°
2026-04-13 16:27 49.21926 -39.11576 34093 ft 519 kts 71°
2026-04-13 16:28 49.24418 -39.01291 34098 ft 519 kts 71°
2026-04-13 16:28 49.26911 -38.90960 34093 ft 519 kts 71°
2026-04-13 16:29 49.29384 -38.80666 34088 ft 519 kts 71°
2026-04-13 16:29 49.31875 -38.70248 34086 ft 519 kts 71°
2026-04-13 16:30 49.34323 -38.59955 34080 ft 518 kts 71°
2026-04-13 16:30 49.36769 -38.49626 34100 ft 519 kts 72°
2026-04-13 16:31 49.39227 -38.39193 34106 ft 519 kts 72°
2026-04-13 16:31 49.41672 -38.28770 34096 ft 519 kts 72°
2026-04-13 16:32 49.44102 -38.18358 34109 ft 519 kts 73°
2026-04-13 16:32 49.46515 -38.07967 34117 ft 519 kts 73°
2026-04-13 16:33 49.48924 -37.97548 34102 ft 520 kts 73°
2026-04-13 16:33 49.51334 -37.87072 34120 ft 521 kts 73°
2026-04-13 16:34 49.53721 -37.76637 34126 ft 519 kts 73°
2026-04-13 16:34 49.56097 -37.66203 34142 ft 520 kts 73°
2026-04-13 16:35 49.58488 -37.55656 34133 ft 520 kts 73°
2026-04-13 16:35 49.60855 -37.45161 34132 ft 521 kts 73°
2026-04-13 16:36 49.63208 -37.34675 34150 ft 521 kts 74°
2026-04-13 16:36 49.65554 -37.24168 34143 ft 520 kts 74°
2026-04-13 16:37 49.67891 -37.13646 34153 ft 520 kts 74°
2026-04-13 16:37 49.70234 -37.03044 34163 ft 520 kts 75°
2026-04-13 16:38 49.72546 -36.92529 34165 ft 521 kts 75°
2026-04-13 16:38 49.74853 -36.81981 34166 ft 521 kts 75°
2026-04-13 16:39 49.77156 -36.71405 34174 ft 521 kts 75°
2026-04-13 16:39 49.79463 -36.60748 34166 ft 522 kts 75°
2026-04-13 16:40 49.81739 -36.50185 34187 ft 522 kts 75°
2026-04-13 16:40 49.84038 -36.39461 34188 ft 522 kts 75°
2026-04-13 16:41 49.86306 -36.28823 34194 ft 521 kts 76°
2026-04-13 16:41 49.88553 -36.18225 34192 ft 522 kts 76°
2026-04-13 16:42 49.90805 -36.07552 34202 ft 522 kts 76°
2026-04-13 16:42 49.93042 -35.96889 34208 ft 522 kts 76°
2026-04-13 16:43 49.95287 -35.86136 34214 ft 522 kts 76°
2026-04-13 16:43 49.97507 -35.75445 34218 ft 523 kts 76°
2026-04-13 16:44 49.99719 -35.64731 34219 ft 523 kts 76°
2026-04-13 16:44 50.01943 -35.53905 34218 ft 523 kts 76°
2026-04-13 16:45 50.04131 -35.43198 34231 ft 524 kts 76°
2026-04-13 16:45 50.06332 -35.32367 34232 ft 523 kts 77°
2026-04-13 16:46 50.08501 -35.21630 34234 ft 523 kts 77°
2026-04-13 16:46 50.10676 -35.10803 34239 ft 524 kts 77°
2026-04-13 16:47 50.12820 -35.00074 34247 ft 523 kts 77°
2026-04-13 16:47 50.14970 -34.89259 34232 ft 524 kts 77°
2026-04-13 16:48 50.17130 -34.78335 34225 ft 525 kts 78°
2026-04-13 16:48 50.19255 -34.67514 34245 ft 524 kts 78°
2026-04-13 16:49 50.21371 -34.56689 34248 ft 525 kts 78°
2026-04-13 16:49 50.23490 -34.45784 34249 ft 525 kts 78°
2026-04-13 16:50 50.25260 -34.36631 34244 ft 525 kts 78°
2026-04-13 16:50 50.27703 -34.23909 34257 ft 526 kts 79°
2026-04-13 16:51 50.29796 -34.12956 34250 ft 528 kts 79°
2026-04-13 16:51 50.31886 -34.01953 34260 ft 527 kts 79°
2026-04-13 16:52 50.33967 -33.90927 34277 ft 526 kts 79°
2026-04-13 16:52 50.36017 -33.80001 34271 ft 528 kts 79°
2026-04-13 16:53 50.38078 -33.68955 34284 ft 529 kts 79°
2026-04-13 16:53 50.40119 -33.57948 34274 ft 527 kts 79°
2026-04-13 16:54 50.42162 -33.46875 34281 ft 526 kts 79°
2026-04-13 16:54 50.44170 -33.35904 34289 ft 528 kts 80°
2026-04-13 16:55 50.46188 -33.24825 34290 ft 527 kts 81°
2026-04-13 16:55 50.48182 -33.13811 34287 ft 525 kts 81°
2026-04-13 16:56 50.50166 -33.02788 34292 ft 528 kts 81°
2026-04-13 16:56 50.52158 -32.91643 34299 ft 528 kts 81°
2026-04-13 16:57 50.54137 -32.80518 34283 ft 528 kts 81°
2026-04-13 16:57 50.56105 -32.69371 34288 ft 529 kts 81°
2026-04-13 16:58 50.58054 -32.58285 34294 ft 527 kts 81°
2026-04-13 16:58 50.59999 -32.47118 34301 ft 530 kts 81°
2026-04-13 16:59 50.61928 -32.35988 34290 ft 532 kts 81°
2026-04-13 16:59 50.63866 -32.24741 34289 ft 530 kts 82°
2026-04-13 17:00 50.65767 -32.13637 34303 ft 531 kts 83°
2026-04-13 17:00 50.67683 -32.02387 34303 ft 532 kts 82°
2026-04-13 17:01 50.69579 -31.91148 34307 ft 533 kts 82°
2026-04-13 17:01 50.71467 -31.79903 34284 ft 529 kts 83°
2026-04-13 17:02 50.73346 -31.68638 34285 ft 533 kts 82°
2026-04-13 17:02 50.75220 -31.57328 34288 ft 532 kts 83°
2026-04-13 17:03 50.77076 -31.46054 34302 ft 533 kts 83°
2026-04-13 17:03 50.78930 -31.34699 34286 ft 535 kts 83°
2026-04-13 17:04 50.80776 -31.23336 34279 ft 533 kts 83°
2026-04-13 17:04 50.82608 -31.11977 34297 ft 534 kts 84°
2026-04-13 17:05 50.84433 -31.00579 34282 ft 537 kts 83°
2026-04-13 17:05 50.86257 -30.89131 34278 ft 532 kts 84°
2026-04-13 17:06 50.88039 -30.77829 34294 ft 536 kts 84°
2026-04-13 17:06 50.89832 -30.66413 34301 ft 533 kts 84°
2026-04-13 17:07 50.91621 -30.54920 34320 ft 537 kts 84°
2026-04-13 17:07 50.93431 -30.43210 34327 ft 542 kts 84°
2026-04-13 17:08 50.95274 -30.31217 34327 ft 543 kts 85°
2026-04-13 17:08 50.97096 -30.19276 34321 ft 538 kts 85°
2026-04-13 17:09 50.98914 -30.07239 34316 ft 540 kts 85°
2026-04-13 17:09 51.00759 -29.95324 34333 ft 539 kts 85°
2026-04-13 17:10 51.02416 -29.83373 34348 ft 541 kts 85°
2026-04-13 17:10 51.04139 -29.71317 34346 ft 539 kts 85°
2026-04-13 17:11 51.05848 -29.59286 34358 ft 537 kts 85°
2026-04-13 17:11 51.07556 -29.47202 34351 ft 538 kts 86°
2026-04-13 17:12 51.09236 -29.35199 34357 ft 537 kts 86°
2026-04-13 17:12 51.10912 -29.23113 34339 ft 539 kts 86°
2026-04-13 17:13 51.12562 -29.11153 34342 ft 535 kts 87°
2026-04-13 17:13 51.14203 -28.99112 34341 ft 539 kts 86°
2026-04-13 17:14 51.15834 -28.87096 34347 ft 539 kts 86°
2026-04-13 17:14 51.17448 -28.75086 34354 ft 541 kts 86°
2026-04-13 17:15 51.19068 -28.62918 34359 ft 539 kts 86°
2026-04-13 17:15 51.20653 -28.50903 34361 ft 543 kts 86°
2026-04-13 17:16 51.22258 -28.38663 34360 ft 544 kts 86°
2026-04-13 17:16 51.23846 -28.26422 34367 ft 544 kts 86°
2026-04-13 17:17 51.25423 -28.14198 34356 ft 543 kts 86°
2026-04-13 17:17 51.27011 -28.01731 34381 ft 548 kts 86°
2026-04-13 17:18 51.28572 -27.89404 34386 ft 545 kts 86°
2026-04-13 17:18 51.30137 -27.76888 34390 ft 549 kts 86°
2026-04-13 17:19 51.31676 -27.64521 34390 ft 548 kts 86°
2026-04-13 17:19 51.33205 -27.52072 34394 ft 550 kts 85°
2026-04-13 17:20 51.34713 -27.39706 34400 ft 550 kts 85°
2026-04-13 17:20 51.36227 -27.27191 34393 ft 548 kts 86°
2026-04-13 17:21 51.37717 -27.14719 34405 ft 548 kts 86°
2026-04-13 17:21 51.39197 -27.02238 34415 ft 550 kts 86°
2026-04-13 17:22 51.40669 -26.89703 34408 ft 548 kts 86°
2026-04-13 17:22 51.42112 -26.77261 34397 ft 550 kts 86°
2026-04-13 17:23 51.43544 -26.64821 34413 ft 549 kts 86°
2026-04-13 17:23 51.44971 -26.52289 34415 ft 556 kts 86°
2026-04-13 17:24 51.46394 -26.39682 34419 ft 555 kts 86°
2026-04-13 17:24 51.47790 -26.27173 34405 ft 554 kts 87°
2026-04-13 17:25 51.49187 -26.14545 34432 ft 556 kts 87°
2026-04-13 17:25 51.50584 -26.01774 34442 ft 556 kts 86°
2026-04-13 17:26 51.51958 -25.89061 34430 ft 557 kts 87°
2026-04-13 17:26 51.53310 -25.76425 34427 ft 562 kts 86°
2026-04-13 17:27 51.55360 -25.57034 34429 ft 562 kts 86°
2026-04-13 17:27 51.56696 -25.44196 34439 ft 561 kts 87°
2026-04-13 17:28 51.57993 -25.31629 34429 ft 562 kts 87°
2026-04-13 17:28 51.59265 -25.19130 34447 ft 562 kts 88°
2026-04-13 17:29 51.60530 -25.06587 34458 ft 564 kts 88°
2026-04-13 17:29 51.61777 -24.94067 34452 ft 566 kts 88°
2026-04-13 17:30 51.63025 -24.81424 34456 ft 565 kts 88°
2026-04-13 17:30 51.64254 -24.68809 34456 ft 569 kts 87°
2026-04-13 17:31 51.65477 -24.56097 34453 ft 567 kts 88°
2026-04-13 17:31 51.66690 -24.43343 34455 ft 572 kts 87°
2026-04-13 17:32 51.67884 -24.30654 34448 ft 572 kts 88°
2026-04-13 17:32 51.69058 -24.18000 34459 ft 570 kts 88°
2026-04-13 17:33 51.70232 -24.05226 34459 ft 570 kts 88°
2026-04-13 17:33 51.71381 -23.92573 34474 ft 574 kts 88°
2026-04-13 17:34 51.73093 -23.73361 34493 ft 576 kts 88°
2026-04-13 17:35 51.74236 -23.60335 34486 ft 577 kts 87°
2026-04-13 17:35 51.75353 -23.47456 34490 ft 578 kts 87°
2026-04-13 17:36 51.76451 -23.34643 34501 ft 578 kts 87°
2026-04-13 17:36 51.77538 -23.21712 34475 ft 578 kts 88°
2026-04-13 17:37 51.78619 -23.08719 34465 ft 581 kts 86°
2026-04-13 17:37 51.79694 -22.95676 34469 ft 582 kts 86°
2026-04-13 17:38 51.80748 -22.82681 34462 ft 581 kts 86°
2026-04-13 17:38 51.81782 -22.69719 34476 ft 580 kts 85°
2026-04-13 17:39 51.82798 -22.56776 34480 ft 582 kts 86°
2026-04-13 17:39 51.83808 -22.43778 34475 ft 580 kts 85°
2026-04-13 17:40 51.84808 -22.30755 34453 ft 583 kts 87°
2026-04-13 17:40 51.85784 -22.17732 34481 ft 580 kts 86°
2026-04-13 17:41 51.86752 -22.04756 34478 ft 581 kts 86°
2026-04-13 17:41 51.87707 -21.91660 34483 ft 581 kts 86°
2026-04-13 17:42 51.88644 -21.78610 34488 ft 581 kts 85°
2026-04-13 17:42 51.89565 -21.65584 34485 ft 580 kts 86°
2026-04-13 17:43 51.90471 -21.52573 34477 ft 580 kts 85°
2026-04-13 17:43 51.91366 -21.39499 34470 ft 578 kts 85°
2026-04-13 17:44 51.92242 -21.26494 34472 ft 578 kts 85°
2026-04-13 17:44 51.93108 -21.13449 34470 ft 574 kts 86°
2026-04-13 17:45 51.93941 -21.00568 34461 ft 575 kts 85°
2026-04-13 17:45 51.94780 -20.87524 34459 ft 575 kts 85°
2026-04-13 17:46 51.95596 -20.74557 34473 ft 574 kts 86°
2026-04-13 17:46 51.96387 -20.61660 34492 ft 576 kts 85°
2026-04-13 17:47 51.97177 -20.48757 34467 ft 576 kts 84°
2026-04-13 17:47 51.97947 -20.35801 34477 ft 575 kts 85°
2026-04-13 17:48 51.98712 -20.22707 34464 ft 574 kts 86°
2026-04-13 17:48 51.99452 -20.09682 34452 ft 575 kts 85°
2026-04-13 17:49 52.00047 -19.96652 34481 ft 577 kts 88°
2026-04-13 17:49 52.00332 -19.83664 34483 ft 577 kts 89°
2026-04-13 17:50 52.00583 -19.70615 34465 ft 576 kts 89°
2026-04-13 17:50 52.00822 -19.57570 34479 ft 577 kts 89°
2026-04-13 17:51 52.01048 -19.44444 34497 ft 577 kts 89°
2026-04-13 17:51 52.01255 -19.31397 34483 ft 579 kts 89°
2026-04-13 17:52 52.01452 -19.18148 34483 ft 581 kts 89°
2026-04-13 17:52 52.01631 -19.04689 34476 ft 582 kts 89°
2026-04-13 17:53 52.01773 -18.93664 34473 ft 581 kts 89°
2026-04-13 17:53 52.01949 -18.78271 34477 ft 582 kts 89°
2026-04-13 17:54 52.02086 -18.65127 34485 ft 584 kts 90°
2026-04-13 17:54 52.02204 -18.51958 34495 ft 581 kts 89°
2026-04-13 17:55 52.02314 -18.38743 34491 ft 583 kts 89°
2026-04-13 17:55 52.02401 -18.25633 34474 ft 583 kts 89°
2026-04-13 17:56 52.02480 -18.12317 34496 ft 583 kts 89°
2026-04-13 17:56 52.02545 -17.99094 34508 ft 581 kts 89°
2026-04-13 17:57 52.02595 -17.85964 34515 ft 583 kts 89°
2026-04-13 17:57 52.02627 -17.72710 34530 ft 583 kts 89°
2026-04-13 17:58 52.02642 -17.59514 34527 ft 581 kts 89°
2026-04-13 17:58 52.02646 -17.46259 34517 ft 584 kts 88°
2026-04-13 17:59 52.02633 -17.32943 34529 ft 584 kts 89°
2026-04-13 17:59 52.02609 -17.19791 34524 ft 582 kts 89°
2026-04-13 18:00 52.02568 -17.06526 34519 ft 584 kts 89°
2026-04-13 18:00 52.02509 -16.93407 34531 ft 582 kts 89°
2026-04-13 18:01 52.02441 -16.80267 34526 ft 582 kts 89°
2026-04-13 18:01 52.02357 -16.67092 34540 ft 581 kts 89°
2026-04-13 18:02 52.02255 -16.53958 34547 ft 581 kts 89°
2026-04-13 18:02 52.02142 -16.40862 34555 ft 580 kts 88°
2026-04-13 18:03 52.02013 -16.27529 34561 ft 582 kts 89°
2026-04-13 18:03 52.01868 -16.14376 34549 ft 580 kts 89°
2026-04-13 18:04 52.01709 -16.01273 34568 ft 581 kts 89°
2026-04-13 18:04 52.01540 -15.88152 34570 ft 580 kts 89°
2026-04-13 18:05 52.01349 -15.75002 34589 ft 580 kts 89°
2026-04-13 18:05 52.01147 -15.61871 34610 ft 579 kts 88°
2026-04-13 18:06 52.00934 -15.48716 34588 ft 579 kts 89°
2026-04-13 18:06 52.00702 -15.35753 34587 ft 578 kts 89°
2026-04-13 18:07 52.00458 -15.22587 34590 ft 577 kts 90°
2026-04-13 18:07 52.00199 -15.09539 34582 ft 576 kts 89°
2026-04-13 18:08 51.99977 -14.96417 34573 ft 575 kts 86°
2026-04-13 18:08 52.00058 -14.83403 34604 ft 576 kts 86°
2026-04-13 18:09 52.00087 -14.70300 34605 ft 577 kts 86°
2026-04-13 18:09 52.00104 -14.57269 34619 ft 577 kts 86°
2026-04-13 18:10 52.00105 -14.44206 34614 ft 578 kts 86°
2026-04-13 18:10 52.00093 -14.31182 34612 ft 577 kts 87°
2026-04-13 18:11 52.00064 -14.17935 34626 ft 579 kts 87°
2026-04-13 18:11 52.00016 -14.04898 34627 ft 580 kts 86°
2026-04-13 18:12 52.00064 -13.91717 34631 ft 579 kts 85°
2026-04-13 18:12 52.00167 -13.78569 34641 ft 581 kts 85°
2026-04-13 18:13 52.00241 -13.65221 34639 ft 580 kts 85°
2026-04-13 18:13 52.00307 -13.52096 34656 ft 580 kts 85°
2026-04-13 18:14 52.00361 -13.38932 34666 ft 583 kts 85°
2026-04-13 18:14 52.00393 -13.25820 34645 ft 581 kts 85°
2026-04-13 18:15 52.00418 -13.12583 34670 ft 582 kts 86°
2026-04-13 18:15 52.00423 -12.99497 34665 ft 580 kts 85°
2026-04-13 18:16 52.00419 -12.86230 34671 ft 584 kts 86°
2026-04-13 18:16 52.00391 -12.73114 34689 ft 582 kts 85°
2026-04-13 18:17 52.00354 -12.59893 34698 ft 580 kts 85°
2026-04-13 18:17 52.00300 -12.46770 34695 ft 581 kts 85°
2026-04-13 18:18 52.00239 -12.33627 34707 ft 581 kts 86°
2026-04-13 18:18 52.00153 -12.20360 34696 ft 577 kts 85°
2026-04-13 18:19 52.00057 -12.07178 34707 ft 578 kts 86°
2026-04-13 18:19 52.00108 -11.94152 34696 ft 573 kts 79°
2026-04-13 18:20 52.00636 -11.81162 34712 ft 575 kts 81°
2026-04-13 18:20 52.01063 -11.68154 34727 ft 573 kts 81°
2026-04-13 18:21 52.01472 -11.55108 34726 ft 571 kts 81°
2026-04-13 18:21 52.01867 -11.42055 34740 ft 570 kts 81°
2026-04-13 18:22 52.02244 -11.29114 34742 ft 570 kts 82°
2026-04-13 18:22 52.02605 -11.16143 34739 ft 567 kts 82°
2026-04-13 18:23 52.02957 -11.03235 34733 ft 569 kts 82°
2026-04-13 18:23 52.03287 -10.90358 34749 ft 566 kts 82°
2026-04-13 18:24 52.03610 -10.77429 34749 ft 567 kts 82°
2026-04-13 18:24 52.03911 -10.64722 34768 ft 564 kts 82°
2026-04-13 18:25 52.04201 -10.51895 34779 ft 564 kts 82°
2026-04-13 18:25 52.04473 -10.39209 34761 ft 561 kts 82°
2026-04-13 18:26 52.04730 -10.26586 34763 ft 564 kts 83°
2026-04-13 18:26 52.04977 -10.13879 34775 ft 562 kts 83°
2026-04-13 18:27 52.05211 -10.01128 34776 ft 560 kts 83°
2026-04-13 18:27 52.05430 -9.88545 34786 ft 560 kts 83°
2026-04-13 18:28 52.05633 -9.75836 34780 ft 559 kts 83°
2026-04-13 18:28 52.05821 -9.63294 34789 ft 559 kts 82°
2026-04-13 18:29 52.05999 -9.50632 34799 ft 559 kts 82°
2026-04-13 18:29 52.06160 -9.38016 34810 ft 558 kts 82°
2026-04-13 18:30 52.06312 -9.25303 34792 ft 560 kts 83°
2026-04-13 18:30 52.06448 -9.12716 34787 ft 560 kts 83°
2026-04-13 18:31 52.06571 -9.00109 34800 ft 559 kts 83°
2026-04-13 18:31 52.06684 -8.87495 34805 ft 557 kts 84°
2026-04-13 18:32 52.06776 -8.74986 34818 ft 554 kts 83°
2026-04-13 18:32 52.06857 -8.62476 34829 ft 555 kts 83°
2026-04-13 18:33 52.06928 -8.49889 34849 ft 553 kts 83°
2026-04-13 18:33 52.06981 -8.37397 34843 ft 552 kts 84°
2026-04-13 18:34 52.07040 -8.18688 34843 ft 553 kts 84°
2026-04-13 18:34 52.07063 -8.06184 34837 ft 553 kts 85°
2026-04-13 18:35 52.07072 -7.93727 34832 ft 553 kts 84°
2026-04-13 18:35 52.07069 -7.81244 34855 ft 552 kts 85°
2026-04-13 18:36 52.07050 -7.68744 34860 ft 552 kts 85°
2026-04-13 18:36 52.07018 -7.56206 34869 ft 550 kts 85°
2026-04-13 18:37 52.06974 -7.43731 34871 ft 550 kts 85°
2026-04-13 18:37 52.06918 -7.31313 34860 ft 549 kts 86°
2026-04-13 18:38 52.06847 -7.18840 34871 ft 547 kts 86°
2026-04-13 18:38 52.06766 -7.06468 34880 ft 545 kts 86°
2026-04-13 18:39 52.06668 -6.93951 34893 ft 545 kts 86°
2026-04-13 18:39 52.06560 -6.81430 34876 ft 545 kts 86°
2026-04-13 18:40 52.06436 -6.68970 34886 ft 547 kts 86°
2026-04-13 18:40 52.06302 -6.56621 34886 ft 546 kts 86°
2026-04-13 18:41 52.06153 -6.44199 34894 ft 546 kts 86°
2026-04-13 18:41 52.05992 -6.31856 34904 ft 546 kts 86°
2026-04-13 18:42 52.05820 -6.19427 34900 ft 547 kts 87°
2026-04-13 18:42 52.05622 -6.07105 34897 ft 546 kts 88°
2026-04-13 18:43 52.05064 -6.00993 34977 ft 553 kts 101°
2026-04-13 18:43 52.04032 -5.94941 34909 ft 555 kts 103°
2026-04-13 18:43 52.01953 -5.82889 34914 ft 552 kts 103°
2026-04-13 18:44 51.99868 -5.70823 34917 ft 551 kts 103°
2026-04-13 18:44 51.97768 -5.58752 34917 ft 552 kts 103°
2026-04-13 18:45 51.95678 -5.46815 34931 ft 551 kts 103°
2026-04-13 18:45 51.93570 -5.34858 34943 ft 550 kts 104°
2026-04-13 18:46 51.91442 -5.22864 34928 ft 551 kts 103°
2026-04-13 18:46 51.90018 -5.10773 34941 ft 548 kts 97°
2026-04-13 18:47 51.88620 -4.98614 34944 ft 548 kts 97°
2026-04-13 18:47 51.87179 -4.86421 34944 ft 547 kts 98°
2026-04-13 18:48 51.85735 -4.74343 34951 ft 547 kts 97°
2026-04-13 18:48 51.84276 -4.62242 34957 ft 546 kts 97°
2026-04-13 18:49 51.82818 -4.50240 34961 ft 545 kts 97°
2026-04-13 18:49 51.81343 -4.38230 34961 ft 544 kts 97°
2026-04-13 18:50 51.79843 -4.26121 34952 ft 545 kts 98°
2026-04-13 18:50 51.78340 -4.14096 34949 ft 544 kts 98°
2026-04-13 18:51 51.76828 -4.02102 34953 ft 543 kts 98°
2026-04-13 18:51 51.75303 -3.90117 34951 ft 542 kts 98°
2026-04-13 18:52 51.73771 -3.78166 34949 ft 542 kts 98°
2026-04-13 18:52 51.72232 -3.66265 34950 ft 540 kts 98°
2026-04-13 18:53 51.70786 -3.54328 34948 ft 537 kts 92°
2026-04-13 18:53 51.70143 -3.42260 34963 ft 537 kts 91°
2026-04-13 18:54 51.69443 -3.30262 34951 ft 537 kts 92°
2026-04-13 18:54 51.68721 -3.18228 34942 ft 535 kts 92°
2026-04-13 18:55 51.67989 -3.06235 34950 ft 536 kts 92°
2026-04-13 18:55 51.67239 -2.94168 34965 ft 535 kts 92°
2026-04-13 18:56 51.66487 -2.82237 34963 ft 534 kts 92°
2026-04-13 18:56 51.65716 -2.70218 34966 ft 533 kts 92°
2026-04-13 18:57 51.64922 -2.58028 34975 ft 534 kts 92°
2026-04-13 18:57 51.64132 -2.46106 34979 ft 533 kts 92°
2026-04-13 18:58 51.63325 -2.34109 34981 ft 532 kts 94°
2026-04-13 18:58 51.62511 -2.22227 34982 ft 532 kts 93°
2026-04-13 18:59 51.61673 -2.10155 34983 ft 532 kts 93°
2026-04-13 18:59 51.60831 -1.98159 34984 ft 532 kts 93°
2026-04-13 19:00 51.59970 -1.86112 34982 ft 532 kts 94°
2026-04-13 19:00 51.59097 -1.74104 34980 ft 532 kts 94°
2026-04-13 19:01 51.57893 -1.62226 34962 ft 536 kts 106°
2026-04-13 19:01 51.55367 -1.50840 34997 ft 536 kts 107°
2026-04-13 19:02 51.52927 -1.39477 34989 ft 534 kts 107°
2026-04-13 19:02 51.50493 -1.28160 34978 ft 534 kts 108°
2026-04-13 19:03 51.48449 -1.16714 34987 ft 531 kts 98°
2026-04-13 19:03 51.47066 -1.05025 34991 ft 532 kts 99°
2026-04-13 19:04 51.45619 -0.93349 34989 ft 529 kts 99°
2026-04-13 19:04 51.44159 -0.81711 34986 ft 531 kts 99°
2026-04-13 19:05 51.42679 -0.70030 35003 ft 530 kts 99°
2026-04-13 19:05 51.41214 -0.58546 34981 ft 530 kts 99°
2026-04-13 19:06 51.39723 -0.46961 34990 ft 530 kts 99°
2026-04-13 19:06 51.38227 -0.35434 35007 ft 529 kts 99°
2026-04-13 19:07 51.36718 -0.23894 34996 ft 530 kts 100°
2026-04-13 19:07 51.35183 -0.12257 35000 ft 530 kts 100°
2026-04-13 19:08 51.33632 -0.00592 34990 ft 529 kts 100°
2026-04-13 19:08 51.32350 0.11135 35008 ft 528 kts 96°
2026-04-13 19:09 51.31270 0.22812 35016 ft 526 kts 97°
2026-04-13 19:09 51.30167 0.34415 35013 ft 525 kts 97°
2026-04-13 19:10 51.29048 0.46021 35015 ft 524 kts 97°
2026-04-13 19:10 51.27903 0.57796 35006 ft 522 kts 97°
2026-04-13 19:11 51.26746 0.69557 34996 ft 520 kts 98°
2026-04-13 19:11 51.25588 0.81195 35003 ft 519 kts 98°
2026-04-13 19:12 51.24428 0.92734 35005 ft 519 kts 98°
2026-04-13 19:12 51.23278 1.04059 35019 ft 518 kts 98°
2026-04-13 19:13 51.22118 1.15370 35019 ft 517 kts 98°
2026-04-13 19:13 51.20929 1.26697 35020 ft 517 kts 100°
2026-04-13 19:14 51.19391 1.37927 35027 ft 518 kts 102°
2026-04-13 19:14 51.17809 1.49297 35024 ft 517 kts 102°
2026-04-13 19:15 51.16202 1.60742 35026 ft 516 kts 102°
2026-04-13 19:15 51.14595 1.72109 35020 ft 516 kts 103°
2026-04-13 19:16 51.12999 1.83318 35021 ft 516 kts 103°
2026-04-13 19:16 51.11380 1.94592 35035 ft 514 kts 103°
2026-04-13 19:17 51.09775 2.05706 35033 ft 512 kts 103°
2026-04-13 19:17 51.08156 2.16823 35032 ft 513 kts 103°
2026-04-13 19:18 51.06525 2.27947 35026 ft 511 kts 103°
2026-04-13 19:18 51.04839 2.39368 35030 ft 511 kts 104°
2026-04-13 19:19 51.03173 2.50558 35034 ft 510 kts 104°
2026-04-13 19:19 51.01523 2.61572 35031 ft 510 kts 104°
2026-04-13 19:20 50.99863 2.72575 35038 ft 508 kts 105°
2026-04-13 19:20 50.98194 2.83558 35028 ft 506 kts 105°
2026-04-13 19:21 50.96524 2.94476 35029 ft 506 kts 105°
2026-04-13 19:21 50.94837 3.05427 35035 ft 506 kts 105°
2026-04-13 19:22 50.93136 3.16406 35028 ft 505 kts 106°
2026-04-13 19:22 50.91430 3.27330 35011 ft 503 kts 106°
2026-04-13 19:23 50.89747 3.38035 35025 ft 501 kts 106°
2026-04-13 19:23 50.88046 3.48785 35013 ft 502 kts 106°
2026-04-13 19:24 50.86334 3.59539 35014 ft 499 kts 107°
2026-04-13 19:24 50.84621 3.70240 35041 ft 497 kts 108°
2026-04-13 19:25 50.82921 3.80774 35003 ft 494 kts 108°
2026-04-13 19:25 50.81151 3.91674 35023 ft 495 kts 108°
2026-04-13 19:26 50.79431 4.02203 35018 ft 492 kts 108°
2026-04-13 19:26 50.77697 4.12749 35006 ft 491 kts 108°
2026-04-13 19:27 50.75963 4.23237 35030 ft 489 kts 108°
2026-04-13 19:27 50.74219 4.33718 35041 ft 489 kts 108°
2026-04-13 19:28 50.72482 4.44091 35016 ft 489 kts 108°
2026-04-13 19:28 50.70732 4.54479 35020 ft 488 kts 109°
2026-04-13 19:29 50.68973 4.64855 35026 ft 486 kts 109°
2026-04-13 19:29 50.67224 4.75127 35029 ft 485 kts 109°
2026-04-13 19:30 50.65457 4.85424 34996 ft 485 kts 110°
2026-04-13 19:30 50.63697 4.95629 35025 ft 485 kts 110°
2026-04-13 19:31 50.61926 5.05838 35005 ft 483 kts 110°
2026-04-13 19:31 50.60129 5.16130 35029 ft 482 kts 110°
2026-04-13 19:32 50.58355 5.26241 35010 ft 479 kts 110°
2026-04-13 19:32 50.56549 5.36471 35016 ft 480 kts 110°
2026-04-13 19:33 50.54758 5.46560 35012 ft 478 kts 110°
2026-04-13 19:34 50.52090 5.61500 33210 ft 463 kts 110°
2026-04-13 19:34 50.51215 5.66359 32085 ft 466 kts 111°
2026-04-13 19:34 50.50325 5.71282 30187 ft 481 kts 111°
2026-04-13 19:34 50.49416 5.76319 28875 ft 479 kts 111°
2026-04-13 19:35 50.48521 5.81267 27866 ft 474 kts 111°
2026-04-13 19:35 50.47618 5.86233 26843 ft 467 kts 111°
2026-04-13 19:35 50.46722 5.91159 25614 ft 468 kts 111°
2026-04-13 19:35 50.45828 5.96040 24820 ft 466 kts 111°
2026-04-13 19:36 50.44951 6.00833 25025 ft 454 kts 111°
2026-04-13 19:36 50.44048 6.05745 25109 ft 457 kts 111°
2026-04-13 19:36 50.43153 6.10601 24929 ft 457 kts 111°
2026-04-13 19:36 50.42270 6.15397 24938 ft 452 kts 111°
2026-04-13 19:37 50.41386 6.20168 24919 ft 453 kts 111°
2026-04-13 19:37 50.40501 6.24925 24988 ft 455 kts 111°
2026-04-13 19:37 50.39617 6.29683 24967 ft 454 kts 111°
2026-04-13 19:37 50.38692 6.34640 24958 ft 454 kts 110°
2026-04-13 19:38 50.37799 6.39419 24960 ft 454 kts 110°
2026-04-13 19:38 50.36874 6.44346 24956 ft 453 kts 110°
2026-04-13 19:38 50.35994 6.49262 24952 ft 456 kts 106°
2026-04-13 19:38 50.35611 6.54374 24957 ft 460 kts 99°
2026-04-13 19:39 50.35299 6.59440 24963 ft 461 kts 99°
2026-04-13 19:39 50.34975 6.64599 24951 ft 461 kts 99°
2026-04-13 19:39 50.34642 6.69817 24958 ft 460 kts 100°
2026-04-13 19:39 50.34316 6.74898 24955 ft 460 kts 100°
2026-04-13 19:40 50.34005 6.79876 24959 ft 461 kts 99°
2026-04-13 19:40 50.33631 6.84933 24942 ft 457 kts 104°
2026-04-13 19:40 50.32574 6.89708 24936 ft 450 kts 118°
2026-04-13 19:40 50.31198 6.94306 24963 ft 451 kts 118°
2026-04-13 19:41 50.29882 6.98713 24980 ft 449 kts 118°
2026-04-13 19:41 50.28525 7.03261 25008 ft 452 kts 118°
2026-04-13 19:41 50.27181 7.07767 24894 ft 450 kts 118°
2026-04-13 19:42 50.24513 7.16682 24942 ft 448 kts 118°
2026-04-13 19:42 50.23134 7.21270 24992 ft 451 kts 118°
2026-04-13 19:42 50.21768 7.25815 25031 ft 449 kts 118°
2026-04-13 19:42 50.20399 7.30358 25012 ft 451 kts 118°
2026-04-13 19:43 50.19110 7.34887 24858 ft 454 kts 114°
2026-04-13 19:43 50.18012 7.39649 24914 ft 450 kts 113°
2026-04-13 19:43 50.16901 7.44355 25074 ft 454 kts 113°
2026-04-13 19:43 50.15823 7.48880 24944 ft 458 kts 113°
2026-04-13 19:44 50.14715 7.53517 24651 ft 443 kts 113°
2026-04-13 19:44 50.13660 7.57926 22886 ft 436 kts 114°
2026-04-13 19:44 50.12593 7.62338 20659 ft 437 kts 113°
2026-04-13 19:44 50.11563 7.66611 19207 ft 419 kts 115°
2026-04-13 19:45 50.10218 7.70533 17583 ft 402 kts 128°
2026-04-13 19:45 50.08654 7.74004 15844 ft 395 kts 127°
2026-04-13 19:45 50.07111 7.77462 14215 ft 385 kts 127°
2026-04-13 19:45 50.05608 7.80840 12611 ft 375 kts 127°
2026-04-13 19:46 50.04167 7.84080 11117 ft 368 kts 126°
2026-04-13 19:46 50.02706 7.87358 10981 ft 357 kts 126°
2026-04-13 19:46 50.01302 7.90512 11066 ft 358 kts 125°
2026-04-13 19:46 50.00279 7.94092 10930 ft 368 kts 105°
2026-04-13 19:47 50.00113 7.98029 10991 ft 372 kts 86°
2026-04-13 19:47 50.00816 8.01988 10978 ft 375 kts 66°
2026-04-13 19:47 50.01894 8.05512 10115 ft 360 kts 69°
2026-04-13 19:47 50.02816 8.09243 8659 ft 375 kts 70°
2026-04-13 19:48 50.03731 8.12975 8270 ft 362 kts 70°
2026-04-13 19:48 50.04617 8.16613 7611 ft 358 kts 70°
2026-04-13 19:48 50.05502 8.20259 6972 ft 366 kts 70°
2026-04-13 19:48 50.06401 8.23962 6977 ft 364 kts 70°
2026-04-13 19:49 50.07276 8.27576 6893 ft 343 kts 70°
2026-04-13 19:49 50.08105 8.31003 6997 ft 334 kts 70°
2026-04-13 19:49 50.08932 8.34428 6938 ft 331 kts 70°
2026-04-13 19:49 50.09739 8.37780 6955 ft 332 kts 70°
2026-04-13 19:50 50.10558 8.41186 6960 ft 332 kts 70°
2026-04-13 19:50 50.11367 8.44558 6944 ft 332 kts 70°
2026-04-13 19:50 50.12189 8.47986 6951 ft 333 kts 70°
2026-04-13 19:50 50.12991 8.51341 6959 ft 334 kts 69°
2026-04-13 19:51 50.13809 8.54761 6948 ft 332 kts 70°
2026-04-13 19:51 50.14597 8.58065 6945 ft 316 kts 70°
2026-04-13 19:51 50.15369 8.61305 6928 ft 300 kts 70°
2026-04-13 19:51 50.16088 8.64328 6906 ft 285 kts 70°
2026-04-13 19:52 50.16755 8.67135 6732 ft 278 kts 71°
2026-04-13 19:52 50.17427 8.69968 6414 ft 277 kts 71°
2026-04-13 19:52 50.18090 8.72767 6115 ft 274 kts 70°
2026-04-13 19:52 50.18751 8.75553 5811 ft 273 kts 70°
2026-04-13 19:53 50.19411 8.78347 5505 ft 271 kts 70°
2026-04-13 19:53 50.20067 8.81129 5200 ft 269 kts 69°
2026-04-13 19:53 50.20717 8.83887 4957 ft 266 kts 69°
2026-04-13 19:53 50.21356 8.86602 5017 ft 268 kts 70°
2026-04-13 19:54 50.21998 8.89357 4982 ft 267 kts 71°
2026-04-13 19:54 50.22173 8.92244 4964 ft 267 kts 99°
2026-04-13 19:54 50.21464 8.94927 4990 ft 268 kts 124°
2026-04-13 19:54 50.20171 8.97119 4981 ft 269 kts 137°
2026-04-13 19:55 50.19103 8.99427 4731 ft 266 kts 111°
2026-04-13 19:55 50.18658 9.02245 4321 ft 267 kts 104°
2026-04-13 19:55 50.18114 9.05052 4023 ft 264 kts 114°
2026-04-13 19:55 50.16993 9.07239 3957 ft 265 kts 142°
2026-04-13 19:56 50.15685 9.09264 4001 ft 267 kts 122°
2026-04-13 19:56 50.14960 9.11953 3965 ft 263 kts 114°
2026-04-13 19:56 50.14006 9.14414 3984 ft 263 kts 122°
2026-04-13 19:56 50.12993 9.16847 3964 ft 266 kts 122°
2026-04-13 19:57 50.11985 9.19261 3955 ft 265 kts 122°
2026-04-13 19:57 50.11183 9.21828 3934 ft 260 kts 102°
2026-04-13 19:57 50.11237 9.24539 3927 ft 245 kts 71°
2026-04-13 19:57 50.12133 9.26685 3945 ft 229 kts 39°
2026-04-13 19:58 50.13526 9.27760 3950 ft 217 kts 19°
2026-04-13 19:58 50.14930 9.28562 3929 ft 211 kts 20°
2026-04-13 19:58 50.16367 9.28946 3942 ft 209 kts 350°
2026-04-13 19:58 50.17672 9.27994 3954 ft 209 kts 315°
2026-04-13 19:59 50.18494 9.26137 3960 ft 208 kts 292°
2026-04-13 19:59 50.18671 9.23888 3975 ft 203 kts 264°
2026-04-13 19:59 50.18530 9.21805 3997 ft 182 kts 264°
2026-04-13 19:59 50.18393 9.19834 3971 ft 183 kts 264°
2026-04-13 20:00 50.18254 9.17919 3929 ft 176 kts 264°
2026-04-13 20:00 50.18029 9.16004 3947 ft 177 kts 252°
2026-04-13 20:00 50.17591 9.14178 3956 ft 177 kts 251°
2026-04-13 20:00 50.17174 9.12378 3959 ft 176 kts 251°
2026-04-13 20:01 50.16752 9.10560 3985 ft 178 kts 251°
2026-04-13 20:01 50.16295 9.08596 3989 ft 195 kts 251°
2026-04-13 20:01 50.15821 9.06558 3960 ft 198 kts 250°
2026-04-13 20:01 50.15348 9.04528 3959 ft 200 kts 251°
2026-04-13 20:02 50.14869 9.02472 3958 ft 199 kts 251°
2026-04-13 20:02 50.14394 9.00449 3966 ft 198 kts 251°
2026-04-13 20:02 50.13919 8.98415 3971 ft 198 kts 250°
2026-04-13 20:02 50.13441 8.96388 3954 ft 197 kts 251°
2026-04-13 20:03 50.12957 8.94317 3958 ft 196 kts 251°
2026-04-13 20:03 50.12472 8.92259 3960 ft 200 kts 250°
2026-04-13 20:03 50.11999 8.90242 3958 ft 197 kts 251°
2026-04-13 20:03 50.11516 8.88195 3970 ft 197 kts 250°
2026-04-13 20:04 50.11041 8.86172 3958 ft 200 kts 250°
2026-04-13 20:04 50.10554 8.84116 3832 ft 199 kts 251°
2026-04-13 20:04 50.10072 8.82070 3550 ft 197 kts 251°
2026-04-13 20:04 50.09602 8.80086 3302 ft 196 kts 251°
2026-04-13 20:05 50.09123 8.78063 3038 ft 194 kts 252°
2026-04-13 20:05 50.08649 8.76061 2772 ft 192 kts 252°
2026-04-13 20:05 50.08179 8.74083 2502 ft 191 kts 252°
2026-04-13 20:05 50.07710 8.72111 2233 ft 191 kts 252°
2026-04-13 20:06 50.07259 8.70206 1962 ft 185 kts 252°
2026-04-13 20:06 50.06817 8.68354 1713 ft 183 kts 252°
2026-04-13 20:06 50.06380 8.66496 1462 ft 177 kts 251°
2026-04-13 20:06 50.05947 8.64694 1216 ft 174 kts 251°
2026-04-13 20:07 50.05550 8.63034 976 ft 157 kts 252°
2026-04-13 20:07 50.05180 8.61476 765 ft 150 kts 251°
2026-04-13 20:07 50.04820 8.59980 575 ft 147 kts 251°
2026-04-13 20:07 50.04460 8.58492 403 ft 147 kts 250°
2026-04-13 20:08 50.04127 8.57096 365 ft 124 kts 251°
2026-04-13 20:08 50.03888 8.56065 348 ft 73 kts 250°
2026-04-13 20:08 50.03772 8.55587 346 ft 24 kts 249°
2026-04-13 20:08 50.03690 8.55249 345 ft 36 kts 253°
2026-04-13 20:09 50.03709 8.54893 344 ft 19 kts 288°
2026-04-13 20:09 50.03799 8.54915 345 ft 19 kts 69°
2026-04-13 20:09 50.03849 8.55116 349 ft 19 kts 69°
2026-04-13 20:09 50.03896 8.55312 351 ft 19 kts 70°
2026-04-13 20:10 50.03944 8.55517 351 ft 20 kts 69°
2026-04-13 20:10 50.03994 8.55720 352 ft 21 kts 70°
2026-04-13 20:10 50.04045 8.55940 353 ft 22 kts 70°
2026-04-13 20:10 50.04099 8.56159 356 ft 21 kts 70°
2026-04-13 20:11 50.04149 8.56376 359 ft 21 kts 70°
2026-04-13 20:11 50.04201 8.56588 361 ft 21 kts 70°
2026-04-13 20:11 50.04261 8.56789 366 ft 18 kts 36°
2026-04-13 20:11 50.04379 8.56838 370 ft 16 kts 11°
2026-04-13 20:12 50.04486 8.56867 372 ft 15 kts 11°
2026-04-13 20:12 50.04548 8.56928 373 ft 9 kts 64°
2026-04-13 20:12 50.04576 8.57003 374 ft 8 kts 59°
2026-04-13 20:12 50.04594 8.57052 374 ft 2 kts 60°
2026-04-13 20:13 50.04598 8.57062 374 ft 0 kts 60°